sensor_id;sensor_type;location;lat;lon;timestamp;pressure;altitude;pressure_sealevel;temperature;humidity
62201;BME280;48197;42.732;27.192;2022-07-31T00:02:21;99368.78;;;18.80;79.04
62201;BME280;48197;42.732;27.192;2022-07-31T00:04:48;99371.88;;;18.72;79.17
62201;BME280;48197;42.732;27.192;2022-07-31T00:07:14;99379.81;;;18.65;79.46
62201;BME280;48197;42.732;27.192;2022-07-31T00:09:41;99386.53;;;18.67;79.86
62201;BME280;48197;42.732;27.192;2022-07-31T00:12:07;99379.63;;;18.77;80.76
62201;BME280;48197;42.732;27.192;2022-07-31T00:14:34;99378.91;;;18.86;81.43
62201;BME280;48197;42.732;27.192;2022-07-31T00:17:01;99375.47;;;18.91;81.63
62201;BME280;48197;42.732;27.192;2022-07-31T00:19:28;99379.78;;;18.92;81.83
62201;BME280;48197;42.732;27.192;2022-07-31T00:21:54;99374.84;;;18.87;81.97
62201;BME280;48197;42.732;27.192;2022-07-31T00:24:21;99381.84;;;18.83;82.25
62201;BME280;48197;42.732;27.192;2022-07-31T00:26:47;99378.44;;;18.79;82.28
62201;BME280;48197;42.732;27.192;2022-07-31T00:29:14;99381.41;;;18.84;82.44
62201;BME280;48197;42.732;27.192;2022-07-31T00:31:40;99379.34;;;18.94;82.41
62201;BME280;48197;42.732;27.192;2022-07-31T00:34:07;99364.72;;;18.99;82.13
62201;BME280;48197;42.732;27.192;2022-07-31T00:36:34;99374.66;;;19.00;82.17
62201;BME280;48197;42.732;27.192;2022-07-31T00:39:00;99367.38;;;18.93;82.29
62201;BME280;48197;42.732;27.192;2022-07-31T00:41:43;99362.56;;;18.85;82.49
62201;BME280;48197;42.732;27.192;2022-07-31T00:44:11;99368.00;;;18.79;82.69
62201;BME280;48197;42.732;27.192;2022-07-31T00:46:38;99360.69;;;18.72;83.15
62201;BME280;48197;42.732;27.192;2022-07-31T00:49:04;99362.56;;;18.75;83.11
62201;BME280;48197;42.732;27.192;2022-07-31T00:51:32;99364.59;;;18.84;82.87
62201;BME280;48197;42.732;27.192;2022-07-31T00:54:00;99352.75;;;18.89;82.64
62201;BME280;48197;42.732;27.192;2022-07-31T00:56:26;99356.81;;;18.88;82.64
62201;BME280;48197;42.732;27.192;2022-07-31T00:58:53;99361.91;;;18.90;82.60
62201;BME280;48197;42.732;27.192;2022-07-31T01:01:22;99353.81;;;19.01;82.22
62201;BME280;48197;42.732;27.192;2022-07-31T01:03:49;99358.41;;;19.23;81.12
62201;BME280;48197;42.732;27.192;2022-07-31T01:06:16;99347.28;;;19.37;80.30
62201;BME280;48197;42.732;27.192;2022-07-31T01:08:42;99348.31;;;19.49;79.57
62201;BME280;48197;42.732;27.192;2022-07-31T01:11:10;99358.38;;;19.65;78.70
62201;BME280;48197;42.732;27.192;2022-07-31T01:16:05;99347.31;;;19.62;77.98
62201;BME280;48197;42.732;27.192;2022-07-31T01:18:33;99351.06;;;19.58;77.93
62201;BME280;48197;42.732;27.192;2022-07-31T01:21:02;99352.50;;;19.54;77.80
62201;BME280;48197;42.732;27.192;2022-07-31T01:26:17;99349.13;;;19.41;78.16
62201;BME280;48197;42.732;27.192;2022-07-31T01:28:54;99348.06;;;19.38;78.50
62201;BME280;48197;42.732;27.192;2022-07-31T01:31:26;99342.63;;;19.34;78.83
62201;BME280;48197;42.732;27.192;2022-07-31T01:34:06;99345.31;;;19.29;79.08
62201;BME280;48197;42.732;27.192;2022-07-31T01:36:35;99337.06;;;19.25;79.54
62201;BME280;48197;42.732;27.192;2022-07-31T01:39:02;99329.00;;;19.18;79.80
62201;BME280;48197;42.732;27.192;2022-07-31T01:41:31;99326.06;;;19.12;80.25
62201;BME280;48197;42.732;27.192;2022-07-31T01:43:59;99323.59;;;19.05;80.60
62201;BME280;48197;42.732;27.192;2022-07-31T01:46:28;99314.44;;;19.05;81.25
62201;BME280;48197;42.732;27.192;2022-07-31T01:48:56;99316.09;;;19.11;81.44
62201;BME280;48197;42.732;27.192;2022-07-31T01:51:22;99314.09;;;19.12;81.64
62201;BME280;48197;42.732;27.192;2022-07-31T01:53:50;99313.16;;;19.15;82.15
62201;BME280;48197;42.732;27.192;2022-07-31T01:56:19;99307.78;;;19.26;82.13
62201;BME280;48197;42.732;27.192;2022-07-31T01:58:46;99305.91;;;19.32;82.03
62201;BME280;48197;42.732;27.192;2022-07-31T02:01:13;99306.16;;;19.44;82.02
62201;BME280;48197;42.732;27.192;2022-07-31T02:03:40;99294.66;;;19.42;82.27
62201;BME280;48197;42.732;27.192;2022-07-31T02:06:08;99294.16;;;19.43;82.53
62201;BME280;48197;42.732;27.192;2022-07-31T02:08:36;99302.78;;;19.64;82.51
62201;BME280;48197;42.732;27.192;2022-07-31T02:11:04;99290.38;;;20.04;81.48
62201;BME280;48197;42.732;27.192;2022-07-31T02:13:30;99288.75;;;20.42;80.08
62201;BME280;48197;42.732;27.192;2022-07-31T02:15:57;99282.41;;;20.71;79.02
62201;BME280;48197;42.732;27.192;2022-07-31T02:18:24;99280.03;;;20.99;77.74
62201;BME280;48197;42.732;27.192;2022-07-31T02:20:51;99269.53;;;21.14;76.59
62201;BME280;48197;42.732;27.192;2022-07-31T02:23:18;99278.34;;;21.22;75.73
62201;BME280;48197;42.732;27.192;2022-07-31T02:25:45;99275.69;;;21.33;75.18
62201;BME280;48197;42.732;27.192;2022-07-31T02:28:13;99274.50;;;21.40;74.82
62201;BME280;48197;42.732;27.192;2022-07-31T02:30:41;99276.06;;;21.41;74.61
62201;BME280;48197;42.732;27.192;2022-07-31T02:33:20;99275.09;;;21.44;74.50
62201;BME280;48197;42.732;27.192;2022-07-31T02:35:50;99266.28;;;21.51;73.92
62201;BME280;48197;42.732;27.192;2022-07-31T02:38:19;99265.28;;;21.54;73.42
62201;BME280;48197;42.732;27.192;2022-07-31T02:40:48;99266.31;;;21.57;73.50
62201;BME280;48197;42.732;27.192;2022-07-31T02:43:15;99257.97;;;21.63;72.98
62201;BME280;48197;42.732;27.192;2022-07-31T02:45:43;99258.81;;;21.69;73.03
62201;BME280;48197;42.732;27.192;2022-07-31T02:48:10;99254.25;;;21.71;72.74
62201;BME280;48197;42.732;27.192;2022-07-31T02:50:36;99251.44;;;21.71;72.54
62201;BME280;48197;42.732;27.192;2022-07-31T02:53:03;99246.09;;;21.73;72.46
62201;BME280;48197;42.732;27.192;2022-07-31T02:55:30;99246.66;;;21.77;72.40
62201;BME280;48197;42.732;27.192;2022-07-31T02:57:56;99240.25;;;21.77;72.52
62201;BME280;48197;42.732;27.192;2022-07-31T03:00:23;99243.56;;;21.75;72.66
62201;BME280;48197;42.732;27.192;2022-07-31T03:02:53;99250.94;;;21.73;72.78
62201;BME280;48197;42.732;27.192;2022-07-31T03:05:21;99249.38;;;21.72;72.71
62201;BME280;48197;42.732;27.192;2022-07-31T03:07:47;99243.56;;;21.75;72.85
62201;BME280;48197;42.732;27.192;2022-07-31T03:10:14;99247.41;;;21.78;72.63
62201;BME280;48197;42.732;27.192;2022-07-31T03:12:41;99260.50;;;21.81;72.48
62201;BME280;48197;42.732;27.192;2022-07-31T03:15:10;99253.19;;;21.89;72.13
62201;BME280;48197;42.732;27.192;2022-07-31T03:17:38;99255.06;;;21.98;71.95
62201;BME280;48197;42.732;27.192;2022-07-31T03:20:06;99259.41;;;21.99;72.03
62201;BME280;48197;42.732;27.192;2022-07-31T03:22:32;99254.16;;;22.07;71.64
62201;BME280;48197;42.732;27.192;2022-07-31T03:25:00;99258.78;;;22.10;71.60
62201;BME280;48197;42.732;27.192;2022-07-31T03:27:27;99258.97;;;22.06;71.69
62201;BME280;48197;42.732;27.192;2022-07-31T03:29:54;99257.94;;;22.03;71.86
62201;BME280;48197;42.732;27.192;2022-07-31T03:32:21;99247.47;;;22.04;71.85
62201;BME280;48197;42.732;27.192;2022-07-31T03:34:48;99255.19;;;22.09;71.63
62201;BME280;48197;42.732;27.192;2022-07-31T03:37:14;99253.41;;;22.12;71.43
62201;BME280;48197;42.732;27.192;2022-07-31T03:39:41;99244.28;;;22.17;71.32
62201;BME280;48197;42.732;27.192;2022-07-31T03:42:11;99246.09;;;22.20;71.51
62201;BME280;48197;42.732;27.192;2022-07-31T03:44:38;99253.06;;;22.25;71.42
62201;BME280;48197;42.732;27.192;2022-07-31T03:47:06;99242.63;;;22.31;71.04
62201;BME280;48197;42.732;27.192;2022-07-31T03:49:33;99235.56;;;22.41;70.92
62201;BME280;48197;42.732;27.192;2022-07-31T03:52:00;99242.78;;;22.48;70.52
62201;BME280;48197;42.732;27.192;2022-07-31T03:54:27;99230.78;;;22.53;70.64
62201;BME280;48197;42.732;27.192;2022-07-31T03:56:54;99231.63;;;22.59;70.38
62201;BME280;48197;42.732;27.192;2022-07-31T03:59:22;99233.75;;;22.70;70.03
62201;BME280;48197;42.732;27.192;2022-07-31T04:01:51;99225.13;;;22.79;69.76
62201;BME280;48197;42.732;27.192;2022-07-31T04:04:18;99219.28;;;22.88;69.18
62201;BME280;48197;42.732;27.192;2022-07-31T04:06:44;99223.69;;;22.95;68.73
62201;BME280;48197;42.732;27.192;2022-07-31T04:09:11;99225.28;;;23.01;68.56
62201;BME280;48197;42.732;27.192;2022-07-31T04:11:38;99234.56;;;23.08;68.21
62201;BME280;48197;42.732;27.192;2022-07-31T04:14:04;99233.59;;;23.16;68.21
62201;BME280;48197;42.732;27.192;2022-07-31T04:16:31;99236.72;;;23.24;67.74
62201;BME280;48197;42.732;27.192;2022-07-31T04:18:58;99228.81;;;23.34;67.56
62201;BME280;48197;42.732;27.192;2022-07-31T04:21:24;99231.44;;;23.43;67.20
62201;BME280;48197;42.732;27.192;2022-07-31T04:23:51;99220.97;;;23.55;66.87
62201;BME280;48197;42.732;27.192;2022-07-31T04:26:18;99229.19;;;23.64;66.46
62201;BME280;48197;42.732;27.192;2022-07-31T04:28:45;99227.69;;;23.74;66.02
62201;BME280;48197;42.732;27.192;2022-07-31T04:31:12;99227.25;;;23.87;65.66
62201;BME280;48197;42.732;27.192;2022-07-31T04:33:39;99239.09;;;23.97;65.41
62201;BME280;48197;42.732;27.192;2022-07-31T04:36:05;99233.47;;;24.08;64.66
62201;BME280;48197;42.732;27.192;2022-07-31T04:38:32;99230.94;;;24.16;64.55
62201;BME280;48197;42.732;27.192;2022-07-31T04:40:59;99239.16;;;24.25;64.21
62201;BME280;48197;42.732;27.192;2022-07-31T04:43:26;99232.47;;;24.34;64.02
62201;BME280;48197;42.732;27.192;2022-07-31T04:45:53;99220.44;;;24.39;63.38
62201;BME280;48197;42.732;27.192;2022-07-31T04:48:19;99222.50;;;24.44;63.19
62201;BME280;48197;42.732;27.192;2022-07-31T04:50:47;99227.16;;;24.58;62.71
62201;BME280;48197;42.732;27.192;2022-07-31T04:53:12;99225.59;;;24.69;62.24
62201;BME280;48197;42.732;27.192;2022-07-31T04:55:39;99235.88;;;24.77;62.26
62201;BME280;48197;42.732;27.192;2022-07-31T04:58:07;99238.94;;;24.91;61.44
62201;BME280;48197;42.732;27.192;2022-07-31T05:00:33;99234.03;;;25.14;60.97
62201;BME280;48197;42.732;27.192;2022-07-31T05:02:59;99243.78;;;25.18;60.84
62201;BME280;48197;42.732;27.192;2022-07-31T05:05:26;99237.09;;;25.16;60.91
62201;BME280;48197;42.732;27.192;2022-07-31T05:07:54;99235.56;;;25.15;60.95
62201;BME280;48197;42.732;27.192;2022-07-31T05:10:20;99236.06;;;25.19;61.12
62201;BME280;48197;42.732;27.192;2022-07-31T05:13:05;99241.19;;;25.26;60.75
62201;BME280;48197;42.732;27.192;2022-07-31T05:15:32;99242.72;;;25.33;60.67
62201;BME280;48197;42.732;27.192;2022-07-31T05:17:59;99236.03;;;25.41;60.67
62201;BME280;48197;42.732;27.192;2022-07-31T05:20:26;99239.34;;;25.51;59.50
62201;BME280;48197;42.732;27.192;2022-07-31T05:22:53;99232.59;;;25.60;59.02
62201;BME280;48197;42.732;27.192;2022-07-31T05:25:20;99231.53;;;25.74;58.68
62201;BME280;48197;42.732;27.192;2022-07-31T05:27:47;99234.81;;;25.90;58.18
62201;BME280;48197;42.732;27.192;2022-07-31T05:30:13;99222.47;;;25.93;57.71
62201;BME280;48197;42.732;27.192;2022-07-31T05:32:44;99230.94;;;25.93;57.66
62201;BME280;48197;42.732;27.192;2022-07-31T05:35:10;99228.84;;;25.99;57.29
62201;BME280;48197;42.732;27.192;2022-07-31T05:37:38;99229.22;;;26.20;56.99
62201;BME280;48197;42.732;27.192;2022-07-31T05:40:05;99230.13;;;26.39;56.23
62201;BME280;48197;42.732;27.192;2022-07-31T05:42:43;99218.75;;;26.45;55.43
62201;BME280;48197;42.732;27.192;2022-07-31T05:45:11;99222.53;;;26.59;54.69
62201;BME280;48197;42.732;27.192;2022-07-31T05:47:37;99231.13;;;26.78;54.37
62201;BME280;48197;42.732;27.192;2022-07-31T05:50:04;99219.22;;;27.09;53.76
62201;BME280;48197;42.732;27.192;2022-07-31T05:52:32;99225.03;;;27.66;52.44
62201;BME280;48197;42.732;27.192;2022-07-31T05:54:58;99224.34;;;28.36;50.44
62201;BME280;48197;42.732;27.192;2022-07-31T05:57:25;99223.34;;;28.98;48.45
62201;BME280;48197;42.732;27.192;2022-07-31T05:59:51;99228.38;;;29.72;46.61
62201;BME280;48197;42.732;27.192;2022-07-31T06:02:18;99236.69;;;30.31;45.60
62201;BME280;48197;42.732;27.192;2022-07-31T06:04:44;99240.19;;;30.79;43.60
62201;BME280;48197;42.732;27.192;2022-07-31T06:07:12;99240.03;;;31.34;43.56
62201;BME280;48197;42.732;27.192;2022-07-31T06:09:39;99231.94;;;31.46;42.88
62201;BME280;48197;42.732;27.192;2022-07-31T06:12:06;99244.91;;;31.47;42.45
62201;BME280;48197;42.732;27.192;2022-07-31T06:14:32;99230.03;;;31.85;41.46
62201;BME280;48197;42.732;27.192;2022-07-31T06:16:58;99235.66;;;32.06;40.63
62201;BME280;48197;42.732;27.192;2022-07-31T06:19:25;99241.84;;;31.89;41.19
62201;BME280;48197;42.732;27.192;2022-07-31T06:21:51;99238.78;;;31.43;42.24
62201;BME280;48197;42.732;27.192;2022-07-31T06:24:17;99252.69;;;31.47;42.29
62201;BME280;48197;42.732;27.192;2022-07-31T06:26:44;99235.78;;;31.28;42.58
62201;BME280;48197;42.732;27.192;2022-07-31T06:29:11;99232.75;;;31.54;42.43
62201;BME280;48197;42.732;27.192;2022-07-31T06:31:38;99226.47;;;32.00;41.29
62201;BME280;48197;42.732;27.192;2022-07-31T06:34:04;99233.47;;;32.82;40.66
62201;BME280;48197;42.732;27.192;2022-07-31T06:36:36;99224.13;;;33.27;38.69
62201;BME280;48197;42.732;27.192;2022-07-31T06:39:09;99223.50;;;33.44;38.75
62201;BME280;48197;42.732;27.192;2022-07-31T06:42:16;99226.06;;;33.81;37.39
62201;BME280;48197;42.732;27.192;2022-07-31T06:44:43;99229.41;;;33.62;38.18
62201;BME280;48197;42.732;27.192;2022-07-31T06:47:10;99234.16;;;33.51;37.89
62201;BME280;48197;42.732;27.192;2022-07-31T06:49:37;99225.09;;;32.68;39.12
62201;BME280;48197;42.732;27.192;2022-07-31T06:55:06;99227.75;;;33.20;38.34
62201;BME280;48197;42.732;27.192;2022-07-31T06:57:33;99235.41;;;33.10;38.87
62201;BME280;48197;42.732;27.192;2022-07-31T07:00:00;99233.47;;;33.35;37.98
62201;BME280;48197;42.732;27.192;2022-07-31T07:02:27;99237.19;;;33.76;37.06
62201;BME280;48197;42.732;27.192;2022-07-31T07:04:53;99232.00;;;33.75;36.96
62201;BME280;48197;42.732;27.192;2022-07-31T07:07:19;99230.50;;;33.74;37.44
62201;BME280;48197;42.732;27.192;2022-07-31T07:09:46;99230.09;;;34.18;36.56
62201;BME280;48197;42.732;27.192;2022-07-31T07:12:13;99236.59;;;34.51;35.99
62201;BME280;48197;42.732;27.192;2022-07-31T07:14:39;99235.31;;;33.56;37.05
62201;BME280;48197;42.732;27.192;2022-07-31T07:17:07;99229.50;;;32.85;37.97
62201;BME280;48197;42.732;27.192;2022-07-31T07:19:33;99241.81;;;32.33;38.68
62201;BME280;48197;42.732;27.192;2022-07-31T07:22:01;99246.25;;;32.50;39.34
62201;BME280;48197;42.732;27.192;2022-07-31T07:24:27;99241.13;;;33.18;37.64
62201;BME280;48197;42.732;27.192;2022-07-31T07:26:54;99237.88;;;32.67;38.44
62201;BME280;48197;42.732;27.192;2022-07-31T07:29:20;99240.88;;;32.31;38.93
62201;BME280;48197;42.732;27.192;2022-07-31T07:31:47;99238.66;;;32.91;37.64
62201;BME280;48197;42.732;27.192;2022-07-31T07:34:13;99241.69;;;32.62;38.32
62201;BME280;48197;42.732;27.192;2022-07-31T07:36:40;99238.59;;;32.52;38.49
62201;BME280;48197;42.732;27.192;2022-07-31T07:39:08;99228.94;;;32.86;37.24
62201;BME280;48197;42.732;27.192;2022-07-31T07:41:39;99232.28;;;34.02;35.27
62201;BME280;48197;42.732;27.192;2022-07-31T07:44:06;99239.66;;;33.80;34.75
62201;BME280;48197;42.732;27.192;2022-07-31T07:46:33;99231.97;;;33.04;36.23
62201;BME280;48197;42.732;27.192;2022-07-31T07:49:00;99238.97;;;32.41;38.00
62201;BME280;48197;42.732;27.192;2022-07-31T07:51:27;99235.22;;;32.54;38.23
62201;BME280;48197;42.732;27.192;2022-07-31T07:53:54;99232.69;;;32.50;38.69
62201;BME280;48197;42.732;27.192;2022-07-31T07:56:20;99231.97;;;33.04;38.11
62201;BME280;48197;42.732;27.192;2022-07-31T07:58:47;99230.28;;;34.20;36.07
62201;BME280;48197;42.732;27.192;2022-07-31T08:01:15;99237.97;;;33.54;36.89
62201;BME280;48197;42.732;27.192;2022-07-31T08:03:41;99235.56;;;32.58;38.94
62201;BME280;48197;42.732;27.192;2022-07-31T08:06:08;99244.88;;;31.84;40.19
62201;BME280;48197;42.732;27.192;2022-07-31T08:08:35;99235.16;;;31.14;41.04
62201;BME280;48197;42.732;27.192;2022-07-31T08:11:01;99247.56;;;30.53;42.45
62201;BME280;48197;42.732;27.192;2022-07-31T08:13:29;99247.63;;;29.92;42.77
62201;BME280;48197;42.732;27.192;2022-07-31T08:15:56;99247.56;;;29.58;43.72
62201;BME280;48197;42.732;27.192;2022-07-31T08:18:23;99249.75;;;29.25;44.30
62201;BME280;48197;42.732;27.192;2022-07-31T08:20:50;99244.88;;;28.94;45.00
62201;BME280;48197;42.732;27.192;2022-07-31T08:35:32;99253.63;;;28.12;45.39
62201;BME280;48197;42.732;27.192;2022-07-31T08:38:02;99248.78;;;28.07;46.01
62201;BME280;48197;42.732;27.192;2022-07-31T08:41:04;99247.56;;;28.02;45.59
62201;BME280;48197;42.732;27.192;2022-07-31T08:46:36;99252.16;;;27.86;45.55
62201;BME280;48197;42.732;27.192;2022-07-31T08:52:09;99253.56;;;27.99;45.63
62201;BME280;48197;42.732;27.192;2022-07-31T08:54:37;99246.66;;;28.13;45.37
62201;BME280;48197;42.732;27.192;2022-07-31T09:00:15;99248.59;;;28.37;44.92
62201;BME280;48197;42.732;27.192;2022-07-31T09:02:47;99256.22;;;28.29;44.45
62201;BME280;48197;42.732;27.192;2022-07-31T09:05:23;99265.81;;;28.26;45.06
62201;BME280;48197;42.732;27.192;2022-07-31T09:07:50;99253.97;;;28.41;44.35
62201;BME280;48197;42.732;27.192;2022-07-31T09:22:29;99252.41;;;30.11;42.26
62201;BME280;48197;42.732;27.192;2022-07-31T09:25:08;99242.28;;;30.23;41.46
62201;BME280;48197;42.732;27.192;2022-07-31T09:27:37;99242.88;;;30.08;41.40
62201;BME280;48197;42.732;27.192;2022-07-31T09:30:07;99246.88;;;30.26;41.34
62201;BME280;48197;42.732;27.192;2022-07-31T09:32:35;99242.75;;;30.69;40.76
62201;BME280;48197;42.732;27.192;2022-07-31T09:38:39;99231.31;;;31.69;38.67
62201;BME280;48197;42.732;27.192;2022-07-31T09:41:12;99230.81;;;31.93;38.66
62201;BME280;48197;42.732;27.192;2022-07-31T09:43:57;99230.75;;;32.30;37.60
62201;BME280;48197;42.732;27.192;2022-07-31T09:49:41;99233.66;;;31.93;37.14
62201;BME280;48197;42.732;27.192;2022-07-31T09:55:12;99242.03;;;31.84;36.84
62201;BME280;48197;42.732;27.192;2022-07-31T10:00:31;99228.91;;;31.88;37.13
62201;BME280;48197;42.732;27.192;2022-07-31T10:34:35;99206.25;;;31.90;36.12
62201;BME280;48197;42.732;27.192;2022-07-31T10:40:43;99209.25;;;31.85;37.04
62201;BME280;48197;42.732;27.192;2022-07-31T10:43:18;99203.16;;;32.48;36.59
62201;BME280;48197;42.732;27.192;2022-07-31T10:46:04;99201.25;;;32.89;36.12
62201;BME280;48197;42.732;27.192;2022-07-31T10:48:32;99201.63;;;33.16;34.95
62201;BME280;48197;42.732;27.192;2022-07-31T10:51:05;99211.44;;;33.53;35.67
62201;BME280;48197;42.732;27.192;2022-07-31T10:53:32;99201.06;;;33.73;34.97
62201;BME280;48197;42.732;27.192;2022-07-31T10:56:02;99197.16;;;33.94;34.41
62201;BME280;48197;42.732;27.192;2022-07-31T10:58:29;99203.28;;;33.90;34.26
62201;BME280;48197;42.732;27.192;2022-07-31T11:13:08;99187.63;;;35.00;33.25
62201;BME280;48197;42.732;27.192;2022-07-31T11:15:42;99188.78;;;34.96;33.13
62201;BME280;48197;42.732;27.192;2022-07-31T11:18:14;99177.63;;;34.58;33.25
62201;BME280;48197;42.732;27.192;2022-07-31T11:20:41;99165.19;;;34.63;33.32
62201;BME280;48197;42.732;27.192;2022-07-31T11:23:16;99170.09;;;34.70;33.11
62201;BME280;48197;42.732;27.192;2022-07-31T11:25:49;99169.72;;;34.91;32.64
62201;BME280;48197;42.732;27.192;2022-07-31T11:28:18;99172.19;;;35.12;32.41
62201;BME280;48197;42.732;27.192;2022-07-31T11:33:54;99157.78;;;36.46;31.44
62201;BME280;48197;42.732;27.192;2022-07-31T11:36:25;99156.09;;;36.99;30.58
62201;BME280;48197;42.732;27.192;2022-07-31T11:38:57;99152.06;;;36.56;29.97
62201;BME280;48197;42.732;27.192;2022-07-31T11:42:00;99156.22;;;35.02;32.21
62201;BME280;48197;42.732;27.192;2022-07-31T11:47:43;99145.34;;;32.03;36.02
62201;BME280;48197;42.732;27.192;2022-07-31T11:50:11;99158.53;;;32.45;36.97
62201;BME280;48197;42.732;27.192;2022-07-31T11:52:38;99159.75;;;33.44;35.06
62201;BME280;48197;42.732;27.192;2022-07-31T11:58:17;99146.84;;;33.20;35.53
62201;BME280;48197;42.732;27.192;2022-07-31T12:13:11;99130.13;;;32.62;35.97
62201;BME280;48197;42.732;27.192;2022-07-31T12:18:54;99127.25;;;32.08;37.39
62201;BME280;48197;42.732;27.192;2022-07-31T12:21:28;99123.56;;;31.85;37.72
62201;BME280;48197;42.732;27.192;2022-07-31T12:23:56;99141.22;;;31.60;38.50
62201;BME280;48197;42.732;27.192;2022-07-31T12:26:25;99129.50;;;31.43;38.89
62201;BME280;48197;42.732;27.192;2022-07-31T12:28:59;99122.25;;;31.42;38.72
62201;BME280;48197;42.732;27.192;2022-07-31T12:31:26;99115.94;;;31.36;39.30
62201;BME280;48197;42.732;27.192;2022-07-31T12:33:55;99117.38;;;31.13;39.70
62201;BME280;48197;42.732;27.192;2022-07-31T12:36:22;99123.06;;;30.85;40.98
62201;BME280;48197;42.732;27.192;2022-07-31T12:39:00;99124.13;;;30.66;41.27
62201;BME280;48197;42.732;27.192;2022-07-31T12:44:33;99117.09;;;30.46;41.47
62201;BME280;48197;42.732;27.192;2022-07-31T12:47:00;99117.38;;;30.56;41.35
62201;BME280;48197;42.732;27.192;2022-07-31T12:49:27;99099.78;;;31.38;40.10
62201;BME280;48197;42.732;27.192;2022-07-31T12:51:53;99107.25;;;34.07;36.77
62201;BME280;48197;42.732;27.192;2022-07-31T12:54:25;99100.66;;;36.06;33.52
62201;BME280;48197;42.732;27.192;2022-07-31T12:56:56;99099.09;;;36.69;31.27
62201;BME280;48197;42.732;27.192;2022-07-31T12:59:27;99107.78;;;35.68;32.54
62201;BME280;48197;42.732;27.192;2022-07-31T13:01:54;99110.13;;;34.57;34.16
62201;BME280;48197;42.732;27.192;2022-07-31T13:04:21;99101.63;;;33.91;34.97
62201;BME280;48197;42.732;27.192;2022-07-31T13:06:48;99100.63;;;33.96;34.49
62201;BME280;48197;42.732;27.192;2022-07-31T13:09:15;99102.81;;;34.64;33.95
62201;BME280;48197;42.732;27.192;2022-07-31T13:11:42;99080.47;;;35.86;32.31
62201;BME280;48197;42.732;27.192;2022-07-31T13:14:09;99074.72;;;37.28;30.68
62201;BME280;48197;42.732;27.192;2022-07-31T13:16:39;99080.38;;;38.49;29.03
62201;BME280;48197;42.732;27.192;2022-07-31T13:19:12;99083.94;;;39.36;27.57
62201;BME280;48197;42.732;27.192;2022-07-31T13:21:40;99075.31;;;40.40;26.76
62201;BME280;48197;42.732;27.192;2022-07-31T13:24:07;99082.31;;;40.72;25.49
62201;BME280;48197;42.732;27.192;2022-07-31T13:27:11;99078.81;;;40.15;25.60
62201;BME280;48197;42.732;27.192;2022-07-31T13:29:37;99079.56;;;40.27;25.34
62201;BME280;48197;42.732;27.192;2022-07-31T13:32:04;99086.63;;;40.12;25.58
62201;BME280;48197;42.732;27.192;2022-07-31T13:44:20;99079.06;;;37.99;26.97
62201;BME280;48197;42.732;27.192;2022-07-31T13:47:12;99078.97;;;37.27;27.47
62201;BME280;48197;42.732;27.192;2022-07-31T13:49:39;99078.94;;;37.37;27.24
62201;BME280;48197;42.732;27.192;2022-07-31T13:52:18;99079.66;;;37.67;27.17
62201;BME280;48197;42.732;27.192;2022-07-31T13:54:44;99076.94;;;38.00;26.78
62201;BME280;48197;42.732;27.192;2022-07-31T13:57:18;99072.97;;;37.74;26.80
62201;BME280;48197;42.732;27.192;2022-07-31T14:00:11;99078.34;;;37.58;26.81
62201;BME280;48197;42.732;27.192;2022-07-31T14:14:49;99072.25;;;36.10;28.53
62201;BME280;48197;42.732;27.192;2022-07-31T14:17:15;99072.38;;;36.02;28.98
62201;BME280;48197;42.732;27.192;2022-07-31T14:19:46;99072.00;;;36.25;28.82
62201;BME280;48197;42.732;27.192;2022-07-31T14:22:14;99070.66;;;35.89;28.92
62201;BME280;48197;42.732;27.192;2022-07-31T14:24:48;99081.75;;;34.44;31.09
62201;BME280;48197;42.732;27.192;2022-07-31T14:27:19;99085.59;;;33.07;32.67
62201;BME280;48197;42.732;27.192;2022-07-31T14:32:49;99079.00;;;31.30;35.57
62201;BME280;48197;42.732;27.192;2022-07-31T14:35:16;99075.88;;;31.05;35.56
62201;BME280;48197;42.732;27.192;2022-07-31T14:37:42;99076.28;;;31.09;35.55
62201;BME280;48197;42.732;27.192;2022-07-31T14:40:08;99075.34;;;31.14;35.73
62201;BME280;48197;42.732;27.192;2022-07-31T14:42:34;99075.88;;;31.12;36.23
62201;BME280;48197;42.732;27.192;2022-07-31T14:45:01;99076.69;;;31.21;35.88
62201;BME280;48197;42.732;27.192;2022-07-31T14:47:32;99072.94;;;31.33;36.31
62201;BME280;48197;42.732;27.192;2022-07-31T14:49:59;99060.19;;;31.42;35.86
62201;BME280;48197;42.732;27.192;2022-07-31T14:52:26;99070.66;;;31.40;35.95
62201;BME280;48197;42.732;27.192;2022-07-31T14:55:01;99064.53;;;31.28;36.39
62201;BME280;48197;42.732;27.192;2022-07-31T14:57:27;99063.38;;;31.16;36.29
62201;BME280;48197;42.732;27.192;2022-07-31T14:59:55;99058.16;;;31.06;36.69
62201;BME280;48197;42.732;27.192;2022-07-31T15:02:22;99061.16;;;30.93;37.32
62201;BME280;48197;42.732;27.192;2022-07-31T15:04:49;99053.53;;;30.88;37.48
62201;BME280;48197;42.732;27.192;2022-07-31T15:07:19;99053.66;;;30.82;37.54
62201;BME280;48197;42.732;27.192;2022-07-31T15:09:47;99050.75;;;30.74;37.96
62201;BME280;48197;42.732;27.192;2022-07-31T15:12:21;99033.97;;;30.63;37.97
62201;BME280;48197;42.732;27.192;2022-07-31T15:15:05;99034.91;;;30.58;37.97
62201;BME280;48197;42.732;27.192;2022-07-31T15:17:32;99029.00;;;30.56;38.37
62201;BME280;48197;42.732;27.192;2022-07-31T15:19:58;99032.53;;;30.49;37.95
62201;BME280;48197;42.732;27.192;2022-07-31T15:22:25;99044.47;;;30.40;38.16
62201;BME280;48197;42.732;27.192;2022-07-31T15:24:53;99035.28;;;30.33;38.49
62201;BME280;48197;42.732;27.192;2022-07-31T15:30:09;99027.75;;;30.15;39.43
62201;BME280;48197;42.732;27.192;2022-07-31T15:32:36;99026.72;;;30.05;39.50
62201;BME280;48197;42.732;27.192;2022-07-31T15:35:04;99029.50;;;29.42;41.31
62201;BME280;48197;42.732;27.192;2022-07-31T15:37:40;99040.84;;;28.41;44.19